Latest Weather Observations for Gove Airport

IDD60801

Issued at 12:31 am CST Tuesday 17 January 2017 (issued every 30 minutes, with the page automatically refreshed every 10 minutes)

About weather observations | Map of weather stations | Latest weather observations for NT | Other Formats
Station Details ID: 014508 Name: GOVE AIRPORT Lat: -12.27 Lon: 136.82 Height: 51.6 m
Data from the previous 72 hours. | See also: Recent months at Gove Airport
Date/Time
CST
Temp
°C
App
Temp
°C
Dew
Point
°C
Rel
Hum
%
Delta-T
°C
Wind Press
QNH
hPa
Press
MSL
hPa
Rain since
9am
mm
Dir  Spd
km/h
Gust
km/h
Spd
kts
Gust
kts
17/12:30am 26.1 30.5 25.0 94 0.8 N 11 13 6 7 1008.7 1008.3 10.6
17/12:00am 25.3 30.2 24.3 94 0.7 N 6 7 3 4 1009.1 1008.7 10.6
 
Date/Time
CST
Temp
°C
App
Temp
°C
Dew
Point
°C
Rel
Hum
%
Delta-T
°C
Wind Press
QNH
hPa
Press
MSL
hPa
Rain since
9am
mm
Dir  Spd
km/h
Gust
km/h
Spd
kts
Gust
kts
16/11:30pm 25.5 30.1 24.2 92 0.9 N 7 7 4 4 1009.4 1009.0 10.6
16/11:00pm 25.9 30.0 24.0 89 1.3 NNW 9 13 5 7 1009.4 1009.0 10.6
16/10:47pm 26.1 31.1 24.8 92 0.9 NW 7 11 4 6 1009.4 1009.0 10.6
16/10:35pm 26.2 31.4 25.1 94 0.8 NW 7 13 4 7 1009.3 1008.9 10.6
16/10:30pm 26.0 32.1 25.1 95 0.6 NNW 2 9 1 5 1009.3 1008.9 10.6
16/10:00pm 26.0 31.1 25.0 94 0.7 NNW 7 9 4 5 1009.1 1008.7 10.6
16/09:30pm 26.3 30.6 24.9 92 1.0 NW 11 15 6 8 1008.9 1008.5 10.6
16/09:00pm 25.9 31.0 25.0 95 0.6 NNW 7 9 4 5 1008.8 1008.4 10.6
16/08:30pm 26.1 32.2 25.0 94 0.8 N 2 7 1 4 1008.5 1008.1 10.6
16/08:00pm 25.9 31.3 25.2 96 0.5 N 6 7 3 4 1008.2 1007.8 10.6
16/07:30pm 26.2 31.6 25.1 94 0.8 NE 6 7 3 4 1008.1 1007.7 10.6
16/07:00pm 26.5 31.9 25.1 92 1.0 N 6 7 3 4 1008.0 1007.6 10.6
16/06:30pm 26.7 31.9 24.8 89 1.3 NW 6 9 3 5 1007.7 1007.3 10.6
16/06:00pm 26.7 31.1 24.4 87 1.6 NW 9 13 5 7 1007.2 1006.9 10.6
16/05:30pm 26.9 30.5 24.3 86 1.8 NNW 13 17 7 9 1006.7 1006.4 10.6
16/05:00pm 27.2 29.9 24.2 84 2.1 NNW 17 20 9 11 1006.4 1006.1 10.6
16/04:30pm 27.3 30.5 24.3 84 2.1 NNW 15 19 8 10 1006.0 1005.7 10.6
16/04:00pm 26.9 29.9 24.0 84 2.0 NNW 15 19 8 10 1005.8 1005.5 10.6
16/03:30pm 26.7 30.7 24.4 87 1.6 NNW 11 15 6 8 1006.3 1006.0 10.6
16/03:00pm 26.3 30.6 24.3 89 1.4 N 9 13 5 7 1006.5 1006.2 10.6
16/02:30pm 25.9 29.7 24.0 89 1.3 N 11 13 6 7 1006.9 1006.6 10.6
16/02:00pm 25.4 29.6 24.1 92 0.9 NNW 9 11 5 6 1007.6 1007.2 10.6
16/01:30pm 24.8 29.1 23.6 93 0.8 NNW 7 9 4 5 1008.0 1007.6 10.6
16/01:00pm 24.4 28.8 22.8 91 1.1 NE 4 7 2 4 1008.5 1008.1 10.6
16/12:30pm 23.8 29.2 23.2 96 0.4 CALM 0 0 0 0 1008.9 1008.5 10.6
16/12:00pm 23.7 27.8 23.3 98 0.3 WSW 7 9 4 5 1009.6 1009.2 9.8
16/11:30am 23.5 27.6 23.2 98 0.2 SW 7 11 4 6 1010.2 1009.8 8.8
16/11:00am 23.6 29.0 23.2 98 0.3 CALM 0 6 0 3 1010.2 1009.8 6.8
16/10:38am 23.4 28.7 23.0 98 0.3 CALM 0 2 0 1 1009.9 1009.5 5.2
16/10:30am 23.4 27.8 22.8 96 0.4 NW 4 7 2 4 1009.9 1009.5 4.8
16/10:16am 23.2 27.0 22.8 98 0.3 WSW 7 9 4 5 1009.8 1009.4 4.6
16/10:00am 23.3 27.2 22.9 98 0.3 WSW 7 13 4 7 1010.1 1009.7 4.2
16/09:49am 23.3 27.2 22.9 98 0.3 WSW 7 11 4 6 1010.3 1009.9 4.0
16/09:30am 23.2 27.0 22.8 98 0.3 SSE 7 11 4 6 1010.0 1009.6 3.6
16/09:25am 23.3 26.7 22.7 96 0.4 SSE 9 13 5 7 1010.0 1009.6 3.6
16/09:00am 23.4 24.7 22.7 96 0.5 SSW 20 35 11 19 1009.6 1009.2 12.2
16/08:43am 25.1 26.9 23.2 89 1.3 W 19 44 10 24 1009.2 1008.8 5.6
16/08:30am 27.1 33.3 26.3 95 0.6 NW 6 9 3 5 1008.7 1008.3 5.6
16/08:12am 26.7 31.9 25.7 94 0.7 NNW 9 17 5 9 1008.8 1008.4 5.6
16/08:01am 26.7 32.7 26.0 96 0.5 ESE 6 7 3 4 1008.8 1008.4 2.8
16/08:00am 26.7 32.6 25.9 95 0.6 ESE 6 7 3 4 1008.7 1008.3 2.6
16/07:30am 26.3 31.8 25.6 96 0.5 ESE 7 9 4 5 1008.5 1008.1 2.6
16/07:00am 25.9 32.5 25.3 96 0.4 CALM 0 0 0 0 1008.0 1007.6 2.4
16/06:30am 25.7 32.3 25.3 98 0.3 CALM 0 7 0 4 1007.6 1007.2 2.4
16/06:00am 25.7 32.3 25.3 98 0.3 CALM 0 0 0 0 1007.1 1006.8 2.4
16/05:30am 25.8 32.5 25.4 98 0.3 CALM 0 0 0 0 1006.6 1006.3 2.4
16/05:00am 25.9 32.5 25.3 96 0.4 CALM 0 0 0 0 1006.4 1006.1 2.4
16/04:30am 25.9 32.2 25.3 96 0.4 SW 2 6 1 3 1006.6 1006.3 2.4
16/04:00am 25.9 32.5 25.3 96 0.4 CALM 0 0 0 0 1006.8 1006.5 2.4
16/03:30am 25.9 31.8 25.3 96 0.4 NW 4 6 2 3 1006.7 1006.4 2.4
16/03:00am 25.8 30.9 24.9 95 0.6 NNW 7 9 4 5 1006.4 1006.1 2.4
16/02:30am 25.8 30.5 24.9 95 0.6 N 9 11 5 6 1006.2 1005.9 2.4
16/02:00am 25.4 30.3 24.7 96 0.5 NW 7 11 4 6 1006.2 1005.9 2.4
16/01:30am 25.4 29.0 24.4 94 0.7 N 13 15 7 8 1006.5 1006.2 2.4
16/01:00am 25.0 28.6 23.8 93 0.8 W 11 15 6 8 1007.2 1006.9 2.2
16/12:30am 25.0 29.8 24.1 95 0.6 NNW 6 7 3 4 1007.2 1006.9 2.0
16/12:00am 24.7 29.3 24.1 96 0.4 N 7 7 4 4 1007.1 1006.8 1.8
 
Date/Time
CST
Temp
°C
App
Temp
°C
Dew
Point
°C
Rel
Hum
%
Delta-T
°C
Wind Press
QNH
hPa
Press
MSL
hPa
Rain since
9am
mm
Dir  Spd
km/h
Gust
km/h
Spd
kts
Gust
kts
15/11:50pm 24.6 30.1 23.4 93 0.8 CALM 0 0 0 0 1007.5 1007.1 1.6
15/11:37pm 24.4 29.3 23.1 92 0.9 SE 2 7 1 4 1008.0 1007.6 1.4
15/11:30pm 24.4 28.1 23.2 93 0.8 ESE 9 13 5 7 1008.2 1007.8 1.2
15/11:13pm 24.6 29.5 23.1 91 1.0 S 2 7 1 4 1008.3 1007.9 1.0
15/11:00pm 24.5 28.2 23.3 93 0.8 SW 9 11 5 6 1008.2 1007.8 0.8
15/10:49pm 24.8 30.0 23.5 92 0.9 SW 2 7 1 4 1008.1 1007.7 0.4
15/10:30pm 24.8 29.5 23.3 91 1.0 W 4 7 2 4 1008.6 1008.2 0.0
15/10:00pm 24.8 27.6 23.0 90 1.2 WSW 13 26 7 14 1009.0 1008.6 0.0
15/09:30pm 27.1 29.6 23.1 79 2.7 WSW 15 37 8 20 1009.2 1008.8 0.0
15/09:00pm 28.5 32.4 24.9 81 2.5 WNW 13 19 7 10 1008.2 1007.8 0.0
15/08:30pm 28.6 32.0 24.7 79 2.7 NW 15 20 8 11 1007.7 1007.3 0.0
15/08:00pm 28.7 32.1 24.7 79 2.8 NW 15 19 8 10 1007.3 1007.0 0.0
15/07:30pm 28.9 31.9 24.6 77 3.0 NW 17 24 9 13 1007.5 1007.1 0.0
15/07:00pm 29.2 32.2 25.2 79 2.8 NNW 19 26 10 14 1007.0 1006.7 0.0
15/06:30pm 29.5 32.2 25.0 77 3.2 NNW 20 26 11 14 1006.4 1006.1 0.0
15/06:00pm 30.0 33.0 25.3 76 3.3 NNW 19 24 10 13 1006.3 1006.0 0.0
15/05:30pm 30.3 34.0 25.1 73 3.7 NNW 15 22 8 12 1006.1 1005.8 0.0
15/05:00pm 30.5 33.5 24.7 71 4.1 N 17 22 9 12 1006.0 1005.7 0.0
15/04:30pm 31.2 33.7 24.8 69 4.5 NNW 20 26 11 14 1005.7 1005.4 0.0
15/04:00pm 30.9 33.1 24.8 70 4.3 N 22 32 12 17 1005.7 1005.4 0.0
15/03:30pm 30.9 33.6 25.1 71 4.1 NNW 20 26 11 14 1005.7 1005.4 0.0
15/03:00pm 30.6 33.2 24.9 71 4.0 NNW 20 26 11 14 1006.0 1005.7 0.0
15/02:30pm 30.9 33.3 24.6 69 4.4 N 20 26 11 14 1006.7 1006.4 0.0
15/02:00pm 32.0 34.3 24.5 64 5.3 NNW 20 30 11 16 1007.0 1006.7 0.0
15/01:30pm 32.9 35.2 24.1 60 6.2 NW 19 28 10 15 1007.7 1007.3 0.0
15/01:00pm 32.0 34.8 23.7 61 5.8 WNW 15 22 8 12 1008.1 1007.7 0.0
15/12:30pm 32.2 35.4 24.4 63 5.5 NW 15 22 8 12 1008.4 1008.0 0.0
15/12:00pm 32.1 35.9 24.7 65 5.2 WNW 13 20 7 11 1009.0 1008.6 0.0
15/11:30am 31.6 35.2 24.3 65 5.1 W 13 19 7 10 1009.4 1009.0 0.0
15/11:00am 30.8 34.5 24.5 69 4.4 WNW 13 20 7 11 1009.5 1009.1 0.0
15/10:30am 30.2 33.9 24.5 71 4.0 WNW 13 19 7 10 1009.7 1009.3 0.0
15/10:00am 30.0 32.7 24.1 70 4.1 NNW 17 20 9 11 1009.7 1009.3 0.0
15/09:30am 29.5 32.7 24.3 73 3.6 NNW 15 19 8 10 1010.2 1009.8 0.0
15/09:00am 29.2 33.1 24.9 77 3.0 WNW 13 19 7 10 1010.3 1009.9 0.0
15/08:30am 28.6 32.9 24.9 80 2.6 NW 11 15 6 8 1010.2 1009.8 0.0
15/08:00am 28.1 32.5 25.0 83 2.2 NNW 11 13 6 7 1010.2 1009.8 0.0
15/07:30am 27.2 32.8 25.4 90 1.3 NW 6 9 3 5 1009.9 1009.5 0.0
15/07:00am 26.1 32.7 25.2 95 0.6 CALM 0 0 0 0 1009.8 1009.4 0.0
15/06:30am 25.1 30.1 24.5 96 0.4 N 6 7 3 4 1009.5 1009.1 0.0
15/06:00am 25.2 30.5 24.3 95 0.6 WNW 4 6 2 3 1009.3 1008.9 0.0
15/05:30am 25.2 30.2 24.5 96 0.5 NW 6 7 3 4 1008.9 1008.5 0.0
15/05:00am 25.3 30.4 24.6 96 0.5 WNW 6 7 3 4 1008.6 1008.2 0.0
15/04:30am 25.6 30.5 24.6 94 0.7 WNW 7 9 4 5 1008.1 1007.7 0.0
15/04:00am 25.5 30.3 24.5 94 0.7 WNW 7 9 4 5 1008.0 1007.6 0.0
15/03:30am 25.4 30.3 24.4 94 0.7 W 6 7 3 4 1008.0 1007.6 0.0
15/03:00am 25.1 29.7 24.2 95 0.6 NW 7 9 4 5 1007.8 1007.4 0.0
15/02:30am 25.4 30.7 24.4 94 0.7 NW 4 6 2 3 1007.9 1007.5 0.0
15/02:00am 25.6 31.8 24.6 94 0.7 CALM 0 0 0 0 1008.3 1007.9 0.0
15/01:30am 26.2 31.6 24.5 90 1.2 WNW 4 9 2 5 1008.2 1007.8 0.0
15/01:00am 26.7 31.1 24.5 88 1.5 N 9 11 5 6 1008.3 1007.9 0.0
15/12:30am 26.7 31.3 24.7 89 1.4 NNW 9 11 5 6 1008.8 1008.4 0.0
15/12:00am 27.3 30.9 24.3 84 2.1 N 13 15 7 8 1009.0 1008.6 0.0
 
Date/Time
CST
Temp
°C
App
Temp
°C
Dew
Point
°C
Rel
Hum
%
Delta-T
°C
Wind Press
QNH
hPa
Press
MSL
hPa
Rain since
9am
mm
Dir  Spd
km/h
Gust
km/h
Spd
kts
Gust
kts
14/11:30pm 27.4 31.0 24.4 84 2.1 N 13 17 7 9 1009.4 1009.0 0.0
14/11:00pm 27.6 31.3 24.6 84 2.1 N 13 17 7 9 1009.5 1009.1 0.0
14/10:30pm 27.6 31.2 24.3 82 2.3 NNW 13 19 7 10 1009.7 1009.3 0.0
14/10:00pm 27.7 32.3 24.7 84 2.1 N 9 13 5 7 1010.0 1009.6 0.0
14/09:30pm 27.9 31.8 24.9 84 2.1 N 13 20 7 11 1009.7 1009.3 0.0
14/09:00pm 27.8 31.7 24.9 84 2.0 N 13 17 7 9 1009.2 1008.8 0.0
14/08:30pm 27.9 32.3 25.1 85 2.0 N 11 15 6 8 1009.2 1008.8 0.0
14/08:00pm 27.9 31.9 25.1 85 2.0 N 13 17 7 9 1009.0 1008.6 0.0
14/07:30pm 28.1 31.6 24.8 82 2.3 N 15 20 8 11 1008.5 1008.1 0.0
14/07:00pm 28.3 31.8 24.9 82 2.4 NNE 15 20 8 11 1008.3 1007.9 0.0
14/06:30pm 28.8 32.2 24.7 78 2.9 N 15 20 8 11 1008.2 1007.8 0.0
14/06:00pm 29.1 32.0 24.4 76 3.3 N 17 22 9 12 1007.9 1007.5 0.0
14/05:30pm 29.6 31.9 24.1 72 3.8 N 19 26 10 14 1007.3 1007.0 0.0
14/05:00pm 29.9 31.6 24.0 70 4.1 N 22 28 12 15 1006.8 1006.5 0.0
14/04:30pm 30.0 32.2 24.0 70 4.2 NNE 19 24 10 13 1006.6 1006.3 0.0
14/04:00pm 30.7 33.5 24.3 68 4.5 N 17 22 9 12 1006.9 1006.6 0.0
14/03:30pm 30.2 32.3 23.7 68 4.5 NNE 19 22 10 12 1007.0 1006.7 0.0
14/03:00pm 31.4 34.4 24.6 67 4.8 N 17 24 9 13 1007.3 1007.0 0.0
14/02:30pm 30.6 34.1 24.2 68 4.5 N 13 20 7 11 1008.0 1007.6 0.0
14/02:00pm 30.9 34.4 24.2 67 4.7 NNE 13 20 7 11 1008.3 1007.9 0.0
14/01:30pm 30.6 33.7 24.2 68 4.5 NNE 15 20 8 11 1008.9 1008.5 0.0
14/01:00pm 29.9 32.6 24.2 71 4.0 N 17 20 9 11 1009.1 1008.7 0.0
14/12:30pm 29.8 32.7 24.4 73 3.8 N 17 20 9 11 1009.3 1008.9 0.0
14/12:00pm 30.0 33.2 24.3 71 4.0 N 15 20 8 11 1009.4 1009.0 0.0
14/11:30am 30.3 33.7 24.1 69 4.3 N 13 19 7 10 1009.6 1009.2 0.0
14/11:00am 30.7 34.2 23.6 66 4.9 NNW 11 17 6 9 1009.4 1009.0 0.0
14/10:30am 30.4 33.2 23.0 64 5.1 NNW 13 17 7 9 1009.7 1009.3 0.0
14/10:00am 30.0 33.1 23.5 68 4.5 NW 13 17 7 9 1009.8 1009.4 0.0
14/09:30am 29.3 32.9 23.8 72 3.8 WNW 11 15 6 8 1009.8 1009.4 0.0
14/09:00am 29.4 33.0 23.8 72 3.9 NNW 11 17 6 9 1010.1 1009.7 3.0
14/08:30am 28.8 33.6 24.4 77 3.1 NNW 7 15 4 8 1010.3 1009.9 3.0
14/08:00am 28.3 33.0 24.9 82 2.4 NNW 9 13 5 7 1010.3 1009.9 3.0
14/07:30am 27.5 32.7 25.1 87 1.7 NNW 7 9 4 5 1010.1 1009.7 3.0
14/07:00am 25.8 32.1 24.8 94 0.7 CALM 0 0 0 0 1009.7 1009.3 3.0
14/06:30am 24.8 30.8 24.2 96 0.4 CALM 0 0 0 0 1009.3 1008.9 3.0
14/06:00am 24.6 30.6 24.2 98 0.3 CALM 0 0 0 0 1009.1 1008.7 3.0
14/05:30am 24.6 30.6 24.2 98 0.3 CALM 0 0 0 0 1008.8 1008.4 3.0
14/05:00am 25.0 29.9 24.4 96 0.4 NNW 6 6 3 3 1008.9 1008.5 3.0
14/04:30am 24.9 29.9 24.5 98 0.3 NNW 6 7 3 4 1008.7 1008.3 3.0
14/04:00am 24.8 30.9 24.5 98 0.2 CALM 0 0 0 0 1008.4 1008.0 3.0
14/03:30am 24.6 29.4 24.2 98 0.3 NNW 6 7 3 4 1008.2 1007.8 3.0
14/03:00am 24.8 30.1 24.4 98 0.3 NE 4 7 2 4 1008.1 1007.7 3.0
14/02:30am 24.8 30.9 24.4 98 0.3 CALM 0 0 0 0 1007.9 1007.5 3.0
14/02:00am 24.8 30.9 24.4 98 0.3 CALM 0 0 0 0 1007.9 1007.5 3.0
14/01:30am 24.8 30.8 24.2 96 0.4 CALM 0 0 0 0 1008.3 1007.9 3.0
14/01:00am 25.0 31.1 24.4 96 0.4 CALM 0 0 0 0 1008.3 1007.9 3.0

Other Formats:

Comma delimited format used in spreadsheet applications
http://www.bom.gov.au/fwo/IDD60801/IDD60801.94150.axf

JavaScript Object Notation format (JSON) in row-major order
http://www.bom.gov.au/fwo/IDD60801/IDD60801.94150.json